createdAt,value
2022-09-23T00:01:03.595Z,99.80
2022-09-23T00:03:31.616Z,99.85
2022-09-23T00:06:03.081Z,100.00
2022-09-23T00:08:30.193Z,100.00
2022-09-23T00:10:57.790Z,100.00
2022-09-23T00:13:24.969Z,100.00
2022-09-23T00:15:51.525Z,99.62
2022-09-23T00:18:18.129Z,99.08
2022-09-23T00:20:45.029Z,99.29
2022-09-23T00:23:11.459Z,97.16
2022-09-23T00:25:37.885Z,97.81
2022-09-23T00:28:04.472Z,96.69
2022-09-23T00:30:31.218Z,97.70
2022-09-23T00:32:57.770Z,98.48
2022-09-23T00:35:24.217Z,97.04
2022-09-23T00:37:50.740Z,97.68
2022-09-23T00:40:17.426Z,98.42
2022-09-23T00:42:49.694Z,98.03
2022-09-23T00:45:16.920Z,99.28
2022-09-23T00:48:01.396Z,99.39
2022-09-23T00:50:39.461Z,100.00
2022-09-23T00:53:09.743Z,100.00
2022-09-23T00:55:52.482Z,100.00
2022-09-23T00:58:25.109Z,99.89
2022-09-23T01:00:51.555Z,99.47
2022-09-23T01:03:19.587Z,99.13
2022-09-23T01:05:46.978Z,97.74
2022-09-23T01:08:14.857Z,97.97
2022-09-23T01:11:20.231Z,97.92
2022-09-23T01:14:17.585Z,97.19
2022-09-23T01:17:00.780Z,97.71
2022-09-23T01:19:36.180Z,97.91
2022-09-23T01:22:23.868Z,97.59
2022-09-23T01:25:25.817Z,97.76
2022-09-23T01:28:06.335Z,97.51
2022-09-23T01:30:46.054Z,97.38
2022-09-23T01:33:24.394Z,97.49
2022-09-23T01:36:08.578Z,97.42
2022-09-23T01:38:42.760Z,97.74
2022-09-23T01:41:20.658Z,97.58
2022-09-23T01:44:11.175Z,98.34
2022-09-23T01:46:51.585Z,97.28
2022-09-23T01:49:23.988Z,97.49
2022-09-23T01:51:59.920Z,96.22
2022-09-23T01:54:38.793Z,95.51
2022-09-23T01:57:15.088Z,95.72
2022-09-23T01:59:48.008Z,94.45
2022-09-23T02:02:17.204Z,95.08
2022-09-23T02:04:56.893Z,96.16
2022-09-23T02:07:40.036Z,94.71
2022-09-23T02:10:11.324Z,94.99
2022-09-23T02:12:40.775Z,95.52
2022-09-23T02:15:13.725Z,96.48
2022-09-23T02:17:54.068Z,97.43
2022-09-23T02:20:29.545Z,97.33
2022-09-23T02:22:59.671Z,98.49
2022-09-23T02:25:35.310Z,99.35
2022-09-23T02:28:12.141Z,100.00
2022-09-23T02:31:07.610Z,100.00
2022-09-23T02:33:45.660Z,100.00
2022-09-23T02:36:32.981Z,100.00
2022-09-23T02:39:05.087Z,100.00
2022-09-23T02:42:06.073Z,100.00
2022-09-23T02:44:32.908Z,100.00
2022-09-23T02:46:59.761Z,100.00
2022-09-23T02:49:30.776Z,100.00
2022-09-23T02:52:01.073Z,100.00
2022-09-23T02:54:28.951Z,100.00
2022-09-23T02:56:55.376Z,100.00
2022-09-23T02:59:23.549Z,100.00
2022-09-23T03:02:08.883Z,100.00
2022-09-23T03:04:35.430Z,100.00
2022-09-23T03:07:47.480Z,100.00
2022-09-23T03:10:35.028Z,100.00
2022-09-23T03:13:29.848Z,100.00
2022-09-23T03:16:07.165Z,100.00
2022-09-23T03:18:51.549Z,100.00
2022-09-23T03:21:28.737Z,100.00
2022-09-23T03:24:00.585Z,100.00
2022-09-23T03:26:36.656Z,100.00
2022-09-23T03:29:09.240Z,100.00
2022-09-23T03:31:39.657Z,100.00
2022-09-23T03:34:14.124Z,100.00
2022-09-23T03:36:53.636Z,100.00
2022-09-23T03:39:58.450Z,100.00
2022-09-23T03:42:29.999Z,100.00
2022-09-23T03:44:57.474Z,100.00
2022-09-23T03:47:28.403Z,100.00
2022-09-23T03:49:56.440Z,100.00
2022-09-23T03:52:24.507Z,100.00
2022-09-23T03:54:51.989Z,100.00
2022-09-23T03:57:20.105Z,100.00
2022-09-23T03:59:46.518Z,100.00
2022-09-23T04:02:13.051Z,100.00
2022-09-23T04:04:41.000Z,100.00
2022-09-23T04:07:07.434Z,100.00
2022-09-23T04:09:35.106Z,100.00
2022-09-23T04:12:01.868Z,100.00
2022-09-23T04:14:28.285Z,100.00
2022-09-23T04:16:54.969Z,100.00
2022-09-23T04:19:21.526Z,100.00
2022-09-23T04:21:48.450Z,100.00
2022-09-23T04:24:15.996Z,100.00
2022-09-23T04:26:43.007Z,100.00
2022-09-23T04:29:10.511Z,100.00
2022-09-23T04:31:37.065Z,100.00
2022-09-23T04:34:03.639Z,100.00
2022-09-23T04:36:30.327Z,100.00
2022-09-23T04:38:56.753Z,100.00
2022-09-23T04:41:23.352Z,100.00
2022-09-23T04:43:49.780Z,100.00
2022-09-23T04:46:16.537Z,100.00
2022-09-23T04:48:43.249Z,100.00
2022-09-23T04:51:15.086Z,100.00
2022-09-23T04:53:43.636Z,100.00
2022-09-23T04:56:13.504Z,100.00
2022-09-23T04:58:40.536Z,100.00
2022-09-23T05:01:14.561Z,100.00
2022-09-23T05:03:42.790Z,100.00
2022-09-23T05:06:10.997Z,100.00
2022-09-23T05:08:37.437Z,100.00
2022-09-23T05:11:05.309Z,100.00
2022-09-23T05:13:32.570Z,100.00
2022-09-23T05:16:04.384Z,100.00
2022-09-23T05:18:32.541Z,100.00
2022-09-23T05:20:59.149Z,100.00
2022-09-23T05:23:27.094Z,100.00
2022-09-23T05:26:02.193Z,98.99
2022-09-23T05:28:32.692Z,99.22
2022-09-23T05:31:20.722Z,98.73
2022-09-23T05:33:51.905Z,98.53
2022-09-23T05:36:20.467Z,98.73
2022-09-23T05:38:49.084Z,98.80
2022-09-23T05:41:16.072Z,98.69
2022-09-23T05:43:42.932Z,97.89
2022-09-23T05:46:35.837Z,96.69
2022-09-23T05:49:04.151Z,95.99
2022-09-23T05:51:32.485Z,95.00
2022-09-23T05:54:00.390Z,94.04
2022-09-23T05:56:28.081Z,93.44
2022-09-23T05:58:57.439Z,92.81
2022-09-23T06:01:26.249Z,91.52
2022-09-23T06:03:56.846Z,91.14
2022-09-23T06:06:28.701Z,90.80
2022-09-23T06:08:55.181Z,89.99
2022-09-23T06:11:21.668Z,88.72
2022-09-23T06:13:49.241Z,88.26
2022-09-23T06:16:16.488Z,87.48
2022-09-23T06:18:45.115Z,87.00
2022-09-23T06:21:16.476Z,86.43
2022-09-23T06:23:43.952Z,86.21
2022-09-23T06:26:12.969Z,85.33
2022-09-23T06:28:41.276Z,85.23
2022-09-23T06:31:14.107Z,84.19
2022-09-23T06:33:45.092Z,84.65
2022-09-23T06:36:18.039Z,84.95
2022-09-23T06:38:50.997Z,83.77
2022-09-23T06:41:17.737Z,83.38
2022-09-23T06:43:44.186Z,82.42
2022-09-23T06:46:15.552Z,82.35
2022-09-23T06:48:46.455Z,81.79
2022-09-23T06:51:19.397Z,80.96
2022-09-23T06:53:47.772Z,80.55
2022-09-23T06:56:14.842Z,79.99
2022-09-23T06:58:41.363Z,79.25
2022-09-23T07:01:10.113Z,78.34
2022-09-23T07:03:37.081Z,78.31
2022-09-23T07:06:04.769Z,77.22
2022-09-23T07:08:33.636Z,77.84
2022-09-23T07:11:03.259Z,79.11
2022-09-23T07:13:30.743Z,76.75
2022-09-23T07:15:58.824Z,76.29
2022-09-23T07:18:26.293Z,75.69
2022-09-23T07:20:53.731Z,74.37
2022-09-23T07:23:20.693Z,73.55
2022-09-23T07:25:50.143Z,73.42
2022-09-23T07:28:16.575Z,73.71
2022-09-23T07:30:55.873Z,72.12
2022-09-23T07:33:32.154Z,72.33
2022-09-23T07:35:59.020Z,72.81
2022-09-23T07:38:29.741Z,72.09
2022-09-23T07:41:08.771Z,72.21
2022-09-23T07:43:35.620Z,72.01
2022-09-23T07:46:06.973Z,71.94
2022-09-23T07:48:34.936Z,71.93
2022-09-23T07:51:07.493Z,72.22
2022-09-23T07:53:34.074Z,71.08
2022-09-23T07:56:00.618Z,71.15
2022-09-23T07:58:27.034Z,71.33
2022-09-23T08:00:53.579Z,70.57
2022-09-23T08:03:20.817Z,70.42
2022-09-23T08:05:47.242Z,70.07
2022-09-23T08:08:14.070Z,70.14
2022-09-23T08:10:40.485Z,71.15
2022-09-23T08:13:06.926Z,71.57
2022-09-23T08:15:33.559Z,70.35
2022-09-23T08:18:00.393Z,71.66
2022-09-23T08:20:47.680Z,70.17
2022-09-23T08:23:16.111Z,70.28
2022-09-23T08:25:46.813Z,70.02
2022-09-23T08:28:16.604Z,70.52
2022-09-23T08:30:44.303Z,70.74
2022-09-23T08:33:12.033Z,69.59
2022-09-23T08:35:38.460Z,70.45
2022-09-23T08:38:05.311Z,70.42
2022-09-23T08:40:39.208Z,70.29
2022-09-23T08:43:07.182Z,69.23
2022-09-23T08:45:36.020Z,69.48
2022-09-23T08:48:13.028Z,68.89
2022-09-23T08:50:54.773Z,68.78
2022-09-23T08:53:32.124Z,70.05
2022-09-23T08:56:02.743Z,68.36
2022-09-23T08:58:47.617Z,68.17
2022-09-23T09:01:34.600Z,67.66
2022-09-23T09:04:04.239Z,67.68
2022-09-23T09:06:52.517Z,67.07
2022-09-23T09:09:24.971Z,66.94
2022-09-23T09:11:58.050Z,67.09
2022-09-23T09:14:26.692Z,66.81
2022-09-23T09:17:00.437Z,66.99
2022-09-23T09:19:52.077Z,66.54
2022-09-23T09:22:44.656Z,65.91
2022-09-23T09:25:44.588Z,64.85
2022-09-23T09:28:42.290Z,64.58
2022-09-23T09:31:11.972Z,64.09
2022-09-23T09:33:57.893Z,64.93
2022-09-23T09:36:50.227Z,64.13
2022-09-23T09:39:17.246Z,64.21
2022-09-23T09:41:48.528Z,63.91
2022-09-23T09:44:37.190Z,64.64
2022-09-23T09:47:16.798Z,64.62
2022-09-23T09:49:53.869Z,63.81
2022-09-23T09:52:29.502Z,63.21
2022-09-23T09:55:22.450Z,62.72
2022-09-23T09:58:01.549Z,63.07
2022-09-23T10:00:27.981Z,63.33
2022-09-23T10:03:03.773Z,62.98
2022-09-23T10:05:33.006Z,61.31
2022-09-23T10:08:18.168Z,61.12
2022-09-23T10:11:12.919Z,60.86
2022-09-23T10:13:39.873Z,61.18
2022-09-23T10:16:06.590Z,61.74
2022-09-23T10:18:38.626Z,61.12
2022-09-23T10:21:15.673Z,60.87
2022-09-23T10:23:57.940Z,61.74
2022-09-23T10:26:32.185Z,60.78
2022-09-23T10:29:02.419Z,61.92
2022-09-23T10:31:34.057Z,61.74
2022-09-23T10:34:20.700Z,63.05
2022-09-23T10:36:55.599Z,63.26
2022-09-23T10:39:40.657Z,63.24
2022-09-23T10:42:45.274Z,63.01
2022-09-23T10:45:43.283Z,62.58
2022-09-23T10:48:19.385Z,62.45
2022-09-23T10:50:52.205Z,62.29
2022-09-23T10:53:30.080Z,61.94
2022-09-23T10:56:14.828Z,61.27
2022-09-23T10:59:03.695Z,60.96
2022-09-23T11:01:48.827Z,60.67
2022-09-23T11:04:25.799Z,61.60
2022-09-23T11:07:18.073Z,60.53
2022-09-23T11:10:11.361Z,61.57
2022-09-23T11:12:54.077Z,59.04
2022-09-23T11:15:44.126Z,59.00
2022-09-23T11:18:41.722Z,58.63
2022-09-23T11:21:37.008Z,59.55
2022-09-23T11:24:22.864Z,59.08
2022-09-23T11:27:07.350Z,58.16
2022-09-23T11:29:56.349Z,58.13
2022-09-23T11:32:22.690Z,58.21
2022-09-23T11:35:19.315Z,58.28
2022-09-23T11:37:53.259Z,58.25
2022-09-23T11:40:29.488Z,57.76
2022-09-23T11:43:04.197Z,57.47
2022-09-23T11:45:35.596Z,58.08
2022-09-23T11:48:21.721Z,57.98
2022-09-23T11:50:56.957Z,57.14
2022-09-23T11:53:44.852Z,57.38
2022-09-23T11:56:34.809Z,58.09
2022-09-23T11:59:39.456Z,56.83
2022-09-23T12:02:29.652Z,56.47
2022-09-23T12:05:10.801Z,56.31
2022-09-23T12:07:56.497Z,55.96
2022-09-23T12:10:36.630Z,55.17
2022-09-23T12:13:32.700Z,54.96
2022-09-23T12:16:25.629Z,54.20
2022-09-23T12:19:42.750Z,53.94
2022-09-23T12:22:40.288Z,54.12
2022-09-23T12:25:45.836Z,52.97
2022-09-23T12:28:24.465Z,53.80
2022-09-23T12:30:55.146Z,52.80
2022-09-23T12:33:26.406Z,52.34
2022-09-23T12:35:55.021Z,52.81
2022-09-23T12:38:25.600Z,53.69
2022-09-23T12:40:55.784Z,53.34
2022-09-23T12:43:30.928Z,52.47
2022-09-23T12:46:29.845Z,52.56
2022-09-23T12:48:57.774Z,52.50
2022-09-23T12:51:35.260Z,52.17
2022-09-23T12:54:04.355Z,52.87
2022-09-23T12:56:33.927Z,52.89
2022-09-23T12:59:12.922Z,52.51
2022-09-23T13:01:39.699Z,51.85
2022-09-23T13:04:24.758Z,52.11
2022-09-23T13:06:58.733Z,51.50
2022-09-23T13:09:29.413Z,51.17
2022-09-23T13:12:06.199Z,51.33
2022-09-23T13:14:34.369Z,51.19
2022-09-23T13:17:01.067Z,52.03
2022-09-23T13:19:35.390Z,51.88
2022-09-23T13:22:11.678Z,52.22
2022-09-23T13:24:42.477Z,52.21
2022-09-23T13:27:20.262Z,52.10
2022-09-23T13:30:14.092Z,52.15
2022-09-23T13:32:51.146Z,50.72
2022-09-23T13:35:34.316Z,49.89
2022-09-23T13:38:10.622Z,49.84
2022-09-23T13:40:38.651Z,49.47
2022-09-23T13:43:09.513Z,48.28
2022-09-23T13:45:42.911Z,48.13
2022-09-23T13:48:15.343Z,47.75
2022-09-23T13:50:51.085Z,47.46
2022-09-23T13:53:25.406Z,47.62
2022-09-23T13:56:14.312Z,47.02
2022-09-23T13:58:41.364Z,48.23
2022-09-23T14:01:22.379Z,47.00
2022-09-23T14:03:48.968Z,46.37
2022-09-23T14:06:16.251Z,45.18
2022-09-23T14:08:49.712Z,45.94
2022-09-23T14:11:18.341Z,46.73
2022-09-23T14:13:47.095Z,47.28
2022-09-23T14:16:15.310Z,47.50
2022-09-23T14:18:47.465Z,49.07
2022-09-23T14:21:35.142Z,49.28
2022-09-23T14:24:21.782Z,49.58
2022-09-23T14:27:01.513Z,49.85
2022-09-23T14:29:33.757Z,49.38
2022-09-23T14:32:23.886Z,49.05
2022-09-23T14:35:06.524Z,50.01
2022-09-23T14:37:57.514Z,51.15
2022-09-23T14:40:32.911Z,51.04
2022-09-23T14:43:02.265Z,51.36
2022-09-23T14:45:34.580Z,51.33
2022-09-23T14:48:14.317Z,51.20
2022-09-23T14:50:48.305Z,51.25
2022-09-23T14:53:22.317Z,51.01
2022-09-23T14:55:52.781Z,51.25
2022-09-23T14:58:22.976Z,50.85
2022-09-23T15:01:00.607Z,51.60
2022-09-23T15:03:28.585Z,51.21
2022-09-23T15:06:08.338Z,50.97
2022-09-23T15:08:35.683Z,51.34
2022-09-23T15:11:08.067Z,50.98
2022-09-23T15:13:41.421Z,51.43
2022-09-23T15:16:08.195Z,52.28
2022-09-23T15:18:36.686Z,52.18
2022-09-23T15:21:10.061Z,53.14
2022-09-23T15:23:45.200Z,53.69
2022-09-23T15:26:18.408Z,53.45
2022-09-23T15:28:46.183Z,53.34
2022-09-23T15:31:18.411Z,54.70
2022-09-23T15:33:49.179Z,54.72
2022-09-23T15:36:20.579Z,55.33
2022-09-23T15:38:47.739Z,56.29
2022-09-23T15:41:14.882Z,57.08
2022-09-23T15:43:41.876Z,56.74
2022-09-23T15:46:17.951Z,56.81
2022-09-23T15:48:58.450Z,55.84
2022-09-23T15:51:26.824Z,56.29
2022-09-23T15:53:55.085Z,55.86
2022-09-23T15:56:22.672Z,56.17
2022-09-23T15:58:49.657Z,55.98
2022-09-23T16:01:34.240Z,56.77
2022-09-23T16:04:02.361Z,56.68
2022-09-23T16:06:28.755Z,57.47
2022-09-23T16:08:55.618Z,57.36
2022-09-23T16:11:29.210Z,57.38
2022-09-23T16:13:55.589Z,57.98
2022-09-23T16:16:22.121Z,57.78
2022-09-23T16:18:51.101Z,58.85
2022-09-23T16:21:26.285Z,59.03
2022-09-23T16:23:54.385Z,62.11
2022-09-23T16:26:27.294Z,63.74
2022-09-23T16:28:56.852Z,63.13
2022-09-23T16:31:29.507Z,69.56
2022-09-23T16:33:56.453Z,69.39
2022-09-23T16:36:30.970Z,71.99
2022-09-23T16:38:59.058Z,74.19
2022-09-23T16:41:29.051Z,73.58
2022-09-23T16:43:56.212Z,75.31
2022-09-23T16:46:23.891Z,75.40
2022-09-23T16:48:52.902Z,78.88
2022-09-23T16:51:22.117Z,81.07
2022-09-23T16:53:49.989Z,81.04
2022-09-23T16:56:18.108Z,81.87
2022-09-23T16:58:44.749Z,82.54
2022-09-23T17:01:34.750Z,83.27
2022-09-23T17:04:01.482Z,81.43
2022-09-23T17:06:27.908Z,80.49
2022-09-23T17:08:54.424Z,82.21
2022-09-23T17:11:21.502Z,83.49
2022-09-23T17:13:49.188Z,83.47
2022-09-23T17:16:35.112Z,84.60
2022-09-23T17:19:09.622Z,87.51
2022-09-23T17:21:36.598Z,88.79
2022-09-23T17:24:03.721Z,88.59
2022-09-23T17:26:30.229Z,89.13
2022-09-23T17:28:58.681Z,89.96
2022-09-23T17:31:25.893Z,90.46
2022-09-23T17:33:52.827Z,90.37
2022-09-23T17:36:20.081Z,91.07
2022-09-23T17:38:48.201Z,91.54
2022-09-23T17:41:15.313Z,91.82
2022-09-23T17:43:41.932Z,91.61
2022-09-23T17:46:17.950Z,92.24
2022-09-23T17:48:45.094Z,93.09
2022-09-23T17:51:16.039Z,95.15
2022-09-23T17:53:45.270Z,96.15
2022-09-23T17:56:22.606Z,95.94
2022-09-23T17:58:49.601Z,95.79
2022-09-23T18:01:19.960Z,95.06
2022-09-23T18:03:47.253Z,95.86
2022-09-23T18:06:15.676Z,96.09
2022-09-23T18:08:44.341Z,95.43
2022-09-23T18:11:13.006Z,95.54
2022-09-23T18:13:39.504Z,95.46
2022-09-23T18:16:07.215Z,95.00
2022-09-23T18:18:33.720Z,94.27
2022-09-23T18:21:04.910Z,93.00
2022-09-23T18:23:31.337Z,91.97
2022-09-23T18:25:57.761Z,91.07
2022-09-23T18:28:24.237Z,91.38
2022-09-23T18:30:55.241Z,92.84
2022-09-23T18:33:22.575Z,93.38
2022-09-23T18:35:49.957Z,92.29
2022-09-23T18:38:16.469Z,90.64
2022-09-23T18:40:50.753Z,90.30
2022-09-23T18:43:19.698Z,91.09
2022-09-23T18:45:55.314Z,92.06
2022-09-23T18:48:40.237Z,92.19
2022-09-23T18:51:08.585Z,91.18
2022-09-23T18:53:35.797Z,91.83
2022-09-23T18:56:13.764Z,92.39
2022-09-23T18:58:45.341Z,91.91
2022-09-23T19:01:12.538Z,92.21
2022-09-23T19:03:39.525Z,91.51
2022-09-23T19:06:21.175Z,90.41
2022-09-23T19:08:50.043Z,90.06
2022-09-23T19:11:16.696Z,91.74
2022-09-23T19:13:43.152Z,92.25
2022-09-23T19:16:15.258Z,90.80
2022-09-23T19:18:46.234Z,90.30
2022-09-23T19:21:14.317Z,89.97
2022-09-23T19:23:46.948Z,89.78
2022-09-23T19:26:16.297Z,89.86
2022-09-23T19:28:50.807Z,90.70
2022-09-23T19:31:25.756Z,90.72
2022-09-23T19:33:56.228Z,90.31
2022-09-23T19:36:24.900Z,89.40
2022-09-23T19:39:00.281Z,90.69
2022-09-23T19:41:31.674Z,92.40
2022-09-23T19:44:02.226Z,93.13
2022-09-23T19:46:30.941Z,93.39
2022-09-23T19:48:58.132Z,94.15
2022-09-23T19:51:24.682Z,94.89
2022-09-23T19:53:51.449Z,95.65
2022-09-23T19:56:18.156Z,96.13
2022-09-23T19:58:51.046Z,95.92
2022-09-23T20:01:18.743Z,95.79
2022-09-23T20:03:46.840Z,95.31
2022-09-23T20:06:14.569Z,95.64
2022-09-23T20:08:42.008Z,96.02
2022-09-23T20:11:13.085Z,95.60
2022-09-23T20:13:40.959Z,95.90
2022-09-23T20:16:12.093Z,96.06
2022-09-23T20:18:38.876Z,96.52
2022-09-23T20:21:06.487Z,96.65
2022-09-23T20:23:33.617Z,96.64
2022-09-23T20:26:20.257Z,97.14
2022-09-23T20:28:47.117Z,97.16
2022-09-23T20:31:14.782Z,96.42
2022-09-23T20:33:41.592Z,95.75
2022-09-23T20:36:09.160Z,95.48
2022-09-23T20:38:36.550Z,95.35
2022-09-23T20:41:03.392Z,94.42
2022-09-23T20:43:32.194Z,93.56
2022-09-23T20:45:58.597Z,94.03
2022-09-23T20:48:25.449Z,94.77
2022-09-23T20:50:51.859Z,96.01
2022-09-23T20:53:19.008Z,97.16
2022-09-23T20:55:52.917Z,98.23
2022-09-23T20:58:23.891Z,99.93
2022-09-23T21:00:50.938Z,100.00
2022-09-23T21:03:18.545Z,99.35
2022-09-23T21:05:45.497Z,98.61
2022-09-23T21:08:12.465Z,98.02
2022-09-23T21:10:38.917Z,98.33
2022-09-23T21:13:06.927Z,98.04
2022-09-23T21:15:36.246Z,98.90
2022-09-23T21:18:02.643Z,98.65
2022-09-23T21:20:29.040Z,98.62
2022-09-23T21:22:57.096Z,98.32
2022-09-23T21:25:28.419Z,98.55
2022-09-23T21:27:55.673Z,97.69
2022-09-23T21:30:22.873Z,96.46
2022-09-23T21:32:49.320Z,97.29
2022-09-23T21:35:16.053Z,97.09
2022-09-23T21:37:42.436Z,97.18
2022-09-23T21:40:28.268Z,96.09
2022-09-23T21:42:59.139Z,96.54
2022-09-23T21:45:26.552Z,96.92
2022-09-23T21:47:53.869Z,97.48
2022-09-23T21:50:20.463Z,98.07
2022-09-23T21:52:48.163Z,98.44
2022-09-23T21:55:14.609Z,98.62
2022-09-23T21:57:41.042Z,98.44
2022-09-23T22:00:09.124Z,98.12
2022-09-23T22:02:39.707Z,98.26
2022-09-23T22:05:07.165Z,98.12
2022-09-23T22:07:37.049Z,97.92
2022-09-23T22:10:05.851Z,97.42
2022-09-23T22:12:33.425Z,96.55
2022-09-23T22:14:59.960Z,96.29
2022-09-23T22:17:26.422Z,95.31
2022-09-23T22:19:52.819Z,94.85
2022-09-23T22:22:19.476Z,94.77
2022-09-23T22:24:46.784Z,94.46
2022-09-23T22:27:16.356Z,94.24
2022-09-23T22:30:01.450Z,94.31
2022-09-23T22:32:40.400Z,94.78
2022-09-23T22:35:17.713Z,95.31
2022-09-23T22:37:44.832Z,95.32
2022-09-23T22:40:16.794Z,94.63
2022-09-23T22:42:43.718Z,94.39
2022-09-23T22:45:11.481Z,94.90
2022-09-23T22:47:39.685Z,95.56
2022-09-23T22:50:08.756Z,95.55
2022-09-23T22:52:36.100Z,95.26
2022-09-23T22:55:03.631Z,95.86
2022-09-23T22:57:31.124Z,95.89
2022-09-23T22:59:57.521Z,96.52
2022-09-23T23:02:24.017Z,96.66
2022-09-23T23:04:50.876Z,96.73
2022-09-23T23:07:21.031Z,96.52
2022-09-23T23:09:49.860Z,95.90
2022-09-23T23:12:16.824Z,95.51
2022-09-23T23:14:43.292Z,95.93
2022-09-23T23:17:09.783Z,96.61
2022-09-23T23:19:37.061Z,96.72
2022-09-23T23:22:05.006Z,96.85
2022-09-23T23:24:32.321Z,97.24
2022-09-23T23:26:58.833Z,97.18
2022-09-23T23:29:25.200Z,97.91
2022-09-23T23:31:51.817Z,98.09
2022-09-23T23:34:21.737Z,99.08
2022-09-23T23:36:54.623Z,100.00
2022-09-23T23:39:23.687Z,100.00
2022-09-23T23:41:57.954Z,100.00
2022-09-23T23:44:26.486Z,100.00
2022-09-23T23:46:54.117Z,100.00
2022-09-23T23:49:21.403Z,100.00
2022-09-23T23:51:47.984Z,100.00
2022-09-23T23:54:15.159Z,99.71
2022-09-23T23:56:41.781Z,99.48
2022-09-23T23:59:08.219Z,98.98
